createdAt,value
2018-09-01T00:00:16.475Z,78.80
2018-09-01T00:02:44.089Z,79.10
2018-09-01T00:05:11.696Z,78.90
2018-09-01T00:07:39.244Z,78.80
2018-09-01T00:10:06.882Z,78.80
2018-09-01T00:12:34.405Z,78.70
2018-09-01T00:15:01.885Z,78.70
2018-09-01T00:17:30.526Z,78.60
2018-09-01T00:20:00.760Z,78.60
2018-09-01T00:22:28.371Z,78.70
2018-09-01T00:24:55.872Z,78.50
2018-09-01T00:27:23.806Z,78.50
2018-09-01T00:29:51.687Z,78.50
2018-09-01T00:32:19.860Z,78.40
2018-09-01T00:34:47.441Z,78.30
2018-09-01T00:37:24.407Z,78.20
2018-09-01T00:39:52.009Z,78.10
2018-09-01T00:42:19.697Z,78.20
2018-09-01T00:44:47.245Z,78.10
2018-09-01T00:47:14.798Z,78.10
2018-09-01T00:49:42.441Z,78.00
2018-09-01T00:52:09.933Z,77.90
2018-09-01T00:54:37.492Z,77.70
2018-09-01T00:57:05.254Z,77.90
2018-09-01T00:59:32.771Z,77.90
2018-09-01T01:02:00.287Z,78.10
2018-09-01T01:04:27.812Z,78.10
2018-09-01T01:06:55.337Z,77.90
2018-09-01T01:09:22.879Z,77.70
2018-09-01T01:11:50.509Z,77.70
2018-09-01T01:14:18.031Z,77.70
2018-09-01T01:16:45.531Z,77.70
2018-09-01T01:19:13.126Z,77.50
2018-09-01T01:21:40.647Z,77.50
2018-09-01T01:24:08.188Z,77.70
2018-09-01T01:26:35.759Z,77.50
2018-09-01T01:29:03.351Z,77.40
2018-09-01T01:31:30.896Z,77.40
2018-09-01T01:33:58.393Z,77.50
2018-09-01T01:36:25.933Z,77.20
2018-09-01T01:38:53.443Z,77.00
2018-09-01T01:41:20.923Z,77.30
2018-09-01T01:43:48.477Z,77.30
2018-09-01T01:46:16.015Z,77.50
2018-09-01T01:48:43.488Z,77.40
2018-09-01T01:51:11.378Z,77.30
2018-09-01T01:53:38.878Z,77.20
2018-09-01T01:56:06.512Z,77.10
2018-09-01T01:58:34.026Z,77.20
2018-09-01T02:01:01.553Z,77.20
2018-09-01T02:03:29.064Z,77.20
2018-09-01T02:05:56.616Z,77.20
2018-09-01T02:08:24.127Z,77.30
2018-09-01T02:10:51.629Z,76.90
2018-09-01T02:13:19.144Z,77.30
2018-09-01T02:15:46.683Z,77.40
2018-09-01T02:18:14.218Z,77.60
2018-09-01T02:20:41.754Z,77.70
2018-09-01T02:23:09.259Z,77.80
2018-09-01T02:25:36.774Z,77.80
2018-09-01T02:28:04.303Z,77.60
2018-09-01T02:30:31.782Z,77.60
2018-09-01T02:32:59.475Z,77.80
2018-09-01T02:35:27.013Z,77.90
2018-09-01T02:37:54.553Z,77.90
2018-09-01T02:40:22.058Z,78.10
2018-09-01T02:42:49.615Z,78.10
2018-09-01T02:45:17.117Z,78.10
2018-09-01T02:47:44.659Z,78.00
2018-09-01T02:50:12.141Z,77.90
2018-09-01T02:52:39.701Z,77.80
2018-09-01T02:55:07.222Z,77.70
2018-09-01T02:57:34.704Z,77.60
2018-09-01T03:00:04.926Z,77.60
2018-09-01T03:02:38.142Z,77.60
2018-09-01T03:05:05.724Z,77.60
2018-09-01T03:07:33.227Z,77.30
2018-09-01T03:10:00.744Z,77.40
2018-09-01T03:12:28.261Z,77.40
2018-09-01T03:14:55.767Z,77.30
2018-09-01T03:17:23.268Z,77.40
2018-09-01T03:19:50.770Z,77.20
2018-09-01T03:22:18.245Z,77.40
2018-09-01T03:24:45.790Z,77.40
2018-09-01T03:27:13.269Z,77.40
2018-09-01T03:29:40.750Z,77.50
2018-09-01T03:32:08.476Z,77.50
2018-09-01T03:34:35.981Z,77.40
2018-09-01T03:37:03.491Z,77.40
2018-09-01T03:39:31.025Z,77.40
2018-09-01T03:41:58.512Z,77.50
2018-09-01T03:44:26.022Z,77.50
2018-09-01T03:46:53.529Z,77.40
2018-09-01T03:49:21.163Z,77.30
2018-09-01T03:51:48.626Z,77.20
2018-09-01T03:54:16.142Z,77.30
2018-09-01T03:56:43.639Z,77.50
2018-09-01T03:59:11.212Z,77.40
2018-09-01T04:01:38.715Z,77.20
2018-09-01T04:04:06.221Z,77.10
2018-09-01T04:06:33.720Z,77.10
2018-09-01T04:09:01.353Z,77.00
2018-09-01T04:11:28.841Z,77.10
2018-09-01T04:13:56.367Z,77.00
2018-09-01T04:16:23.900Z,77.10
2018-09-01T04:18:51.392Z,76.90
2018-09-01T04:21:18.921Z,76.90
2018-09-01T04:23:46.430Z,76.90
2018-09-01T04:26:13.952Z,76.60
2018-09-01T04:28:41.455Z,76.70
2018-09-01T04:31:08.989Z,76.70
2018-09-01T04:33:36.549Z,76.30
2018-09-01T04:36:04.205Z,76.50
2018-09-01T04:38:31.716Z,76.40
2018-09-01T04:40:59.479Z,76.30
2018-09-01T04:43:27.075Z,76.30
2018-09-01T04:45:54.611Z,76.10
2018-09-01T04:48:22.113Z,76.20
2018-09-01T04:50:49.670Z,76.40
2018-09-01T04:53:17.175Z,76.50
2018-09-01T04:55:44.675Z,76.20
2018-09-01T04:58:12.162Z,76.20
2018-09-01T05:00:39.698Z,76.20
2018-09-01T05:03:07.235Z,76.20
2018-09-01T05:05:34.711Z,75.90
2018-09-01T05:08:02.290Z,76.00
2018-09-01T05:10:29.765Z,76.00
2018-09-01T05:12:57.252Z,75.90
2018-09-01T05:15:24.781Z,75.70
2018-09-01T05:17:52.288Z,75.80
2018-09-01T05:20:19.780Z,75.70
2018-09-01T05:22:47.307Z,75.80
2018-09-01T05:25:14.871Z,75.80
2018-09-01T05:27:42.360Z,75.60
2018-09-01T05:30:09.929Z,75.70
2018-09-01T05:32:37.457Z,75.50
2018-09-01T05:35:05.114Z,75.40
2018-09-01T05:37:32.691Z,75.60
2018-09-01T05:40:00.226Z,75.20
2018-09-01T05:42:27.757Z,75.20
2018-09-01T05:44:55.287Z,75.10
2018-09-01T05:47:22.837Z,75.30
2018-09-01T05:49:50.374Z,75.10
2018-09-01T05:52:17.902Z,75.00
2018-09-01T05:54:45.371Z,75.00
2018-09-01T05:57:12.890Z,74.80
2018-09-01T05:59:40.376Z,75.00
2018-09-01T06:02:07.888Z,74.60
2018-09-01T06:04:35.349Z,74.50
2018-09-01T06:07:02.972Z,74.50
2018-09-01T06:09:30.511Z,74.50
2018-09-01T06:11:58.039Z,74.40
2018-09-01T06:14:25.553Z,74.00
2018-09-01T06:16:53.079Z,74.40
2018-09-01T06:19:20.685Z,73.30
2018-09-01T06:21:48.164Z,73.80
2018-09-01T06:24:15.654Z,74.20
2018-09-01T06:26:43.174Z,73.40
2018-09-01T06:29:13.744Z,73.50
2018-09-01T06:31:44.681Z,73.10
2018-09-01T06:34:12.225Z,72.90
2018-09-01T06:36:39.718Z,73.30
2018-09-01T06:39:07.681Z,73.40
2018-09-01T06:41:35.243Z,73.20
2018-09-01T06:44:02.930Z,73.40
2018-09-01T06:46:30.454Z,73.20
2018-09-01T06:48:58.019Z,73.30
2018-09-01T06:51:25.589Z,73.40
2018-09-01T06:53:53.098Z,72.60
2018-09-01T06:56:20.692Z,72.90
2018-09-01T06:58:48.736Z,72.90
2018-09-01T07:01:16.252Z,72.40
2018-09-01T07:03:43.820Z,72.60
2018-09-01T07:06:11.370Z,72.60
2018-09-01T07:08:38.923Z,72.40
2018-09-01T07:11:06.782Z,72.30
2018-09-01T07:13:34.306Z,72.10
2018-09-01T07:16:01.853Z,71.70
2018-09-01T07:18:29.368Z,71.80
2018-09-01T07:20:56.877Z,71.90
2018-09-01T07:23:24.402Z,71.80
2018-09-01T07:25:51.936Z,71.30
2018-09-01T07:28:19.488Z,71.70
2018-09-01T07:30:47.321Z,69.80
2018-09-01T07:33:14.596Z,70.00
2018-09-01T07:35:42.152Z,69.70
2018-09-01T07:38:09.676Z,70.10
2018-09-01T07:40:37.229Z,69.90
2018-09-01T07:43:04.768Z,69.90
2018-09-01T07:45:32.322Z,69.60
2018-09-01T07:48:00.021Z,69.60
2018-09-01T07:50:27.585Z,69.30
2018-09-01T07:52:55.118Z,68.80
2018-09-01T07:55:22.670Z,68.70
2018-09-01T07:57:50.212Z,69.10
2018-09-01T08:00:17.774Z,68.90
2018-09-01T08:02:45.378Z,68.60
2018-09-01T08:05:12.904Z,67.90
2018-09-01T08:07:40.478Z,66.90
2018-09-01T08:10:08.570Z,66.50
2018-09-01T08:12:36.059Z,66.10
2018-09-01T08:15:03.745Z,65.20
2018-09-01T08:17:31.261Z,64.10
2018-09-01T08:19:58.869Z,64.20
2018-09-01T08:22:26.429Z,64.20
2018-09-01T08:24:53.963Z,64.80
2018-09-01T08:27:21.514Z,63.90
2018-09-01T08:29:49.072Z,62.00
2018-09-01T08:32:16.623Z,63.50
2018-09-01T08:34:44.161Z,63.70
2018-09-01T08:37:11.710Z,63.90
2018-09-01T08:39:39.265Z,63.70
2018-09-01T08:42:06.788Z,64.00
2018-09-01T08:44:34.360Z,63.90
2018-09-01T08:47:02.003Z,63.20
2018-09-01T08:49:29.558Z,63.50
2018-09-01T08:51:57.118Z,62.70
2018-09-01T08:54:24.671Z,62.20
2018-09-01T08:56:52.581Z,62.70
2018-09-01T08:59:20.193Z,61.60
2018-09-01T09:01:47.848Z,63.00
2018-09-01T09:04:15.414Z,61.90
2018-09-01T09:06:42.990Z,62.20
2018-09-01T09:09:10.581Z,61.40
2018-09-01T09:11:38.177Z,61.70
2018-09-01T09:14:05.880Z,61.70
2018-09-01T09:16:33.429Z,60.70
2018-09-01T09:19:01.075Z,61.00
2018-09-01T09:21:28.658Z,60.50
2018-09-01T09:23:56.221Z,60.90
2018-09-01T09:26:23.774Z,61.80
2018-09-01T09:28:51.327Z,62.20
2018-09-01T09:31:18.862Z,61.60
2018-09-01T09:33:46.404Z,60.50
2018-09-01T09:36:14.019Z,60.40
2018-09-01T09:38:41.569Z,60.00
2018-09-01T09:41:09.148Z,61.30
2018-09-01T09:43:36.773Z,60.00
2018-09-01T09:46:04.447Z,60.10
2018-09-01T09:48:31.963Z,59.00
2018-09-01T09:50:59.516Z,59.00
2018-09-01T09:53:27.090Z,57.10
2018-09-01T09:55:54.646Z,57.10
2018-09-01T09:58:22.346Z,57.70
2018-09-01T10:00:55.351Z,58.50
2018-09-01T10:03:22.859Z,59.10
2018-09-01T10:05:50.368Z,59.40
2018-09-01T10:08:17.897Z,58.40
2018-09-01T10:10:45.509Z,58.40
2018-09-01T10:13:13.020Z,58.30
2018-09-01T10:15:40.601Z,58.50
2018-09-01T10:18:08.165Z,58.90
2018-09-01T10:20:35.772Z,58.20
2018-09-01T10:23:03.284Z,58.30
2018-09-01T10:25:30.857Z,59.10
2018-09-01T10:27:58.397Z,59.10
2018-09-01T10:30:25.951Z,58.60
2018-09-01T10:32:53.512Z,57.00
2018-09-01T10:35:21.059Z,56.50
2018-09-01T10:37:48.593Z,55.90
2018-09-01T10:40:16.175Z,55.60
2018-09-01T10:42:43.689Z,57.10
2018-09-01T10:45:11.239Z,55.00
2018-09-01T10:47:38.841Z,54.70
2018-09-01T10:50:06.443Z,55.30
2018-09-01T10:52:34.012Z,55.30
2018-09-01T10:55:01.561Z,56.30
2018-09-01T10:57:29.102Z,56.20
2018-09-01T10:59:56.659Z,55.20
2018-09-01T11:02:24.209Z,55.80
2018-09-01T11:04:51.750Z,56.90
2018-09-01T11:07:19.283Z,55.60
2018-09-01T11:09:46.816Z,55.10
2018-09-01T11:12:14.382Z,54.70
2018-09-01T11:14:41.879Z,53.50
2018-09-01T11:17:09.468Z,54.90
2018-09-01T11:19:37.117Z,55.50
2018-09-01T11:22:04.961Z,54.00
2018-09-01T11:24:32.525Z,55.80
2018-09-01T11:27:00.108Z,54.20
2018-09-01T11:29:27.632Z,54.10
2018-09-01T11:31:55.207Z,54.50
2018-09-01T11:34:22.721Z,54.60
2018-09-01T11:36:50.356Z,55.10
2018-09-01T11:39:17.885Z,55.60
2018-09-01T11:41:45.400Z,57.30
2018-09-01T11:44:12.958Z,55.20
2018-09-01T11:46:40.501Z,56.60
2018-09-01T11:49:08.034Z,55.10
2018-09-01T11:51:35.604Z,54.30
2018-09-01T11:54:03.148Z,55.70
2018-09-01T11:56:30.741Z,54.00
2018-09-01T11:58:58.465Z,55.70
2018-09-01T12:01:25.976Z,56.40
2018-09-01T12:03:53.560Z,56.40
2018-09-01T12:06:21.145Z,55.60
2018-09-01T12:08:48.758Z,54.80
2018-09-01T12:11:16.294Z,55.30
2018-09-01T12:13:43.811Z,55.10
2018-09-01T12:16:11.401Z,53.50
2018-09-01T12:18:38.959Z,52.90
2018-09-01T12:21:06.522Z,52.10
2018-09-01T12:23:34.114Z,51.80
2018-09-01T12:26:01.629Z,52.40
2018-09-01T12:28:29.217Z,53.10
2018-09-01T12:30:56.779Z,54.10
2018-09-01T12:33:24.406Z,53.20
2018-09-01T12:35:51.944Z,55.10
2018-09-01T12:38:19.893Z,54.80
2018-09-01T12:40:47.390Z,55.30
2018-09-01T12:43:14.974Z,55.10
2018-09-01T12:45:42.525Z,53.30
2018-09-01T12:48:10.063Z,53.70
2018-09-01T12:50:37.615Z,54.40
2018-09-01T12:53:05.273Z,55.70
2018-09-01T12:55:32.791Z,54.70
2018-09-01T12:58:00.400Z,55.70
2018-09-01T13:00:27.961Z,55.00
2018-09-01T13:02:55.551Z,54.90
2018-09-01T13:05:23.114Z,54.70
2018-09-01T13:07:50.828Z,56.10
2018-09-01T13:10:18.429Z,55.30
2018-09-01T13:12:45.996Z,55.70
2018-09-01T13:15:13.638Z,55.60
2018-09-01T13:17:41.183Z,56.90
2018-09-01T13:20:08.713Z,55.20
2018-09-01T13:22:36.286Z,54.90
2018-09-01T13:25:03.901Z,54.90
2018-09-01T13:27:31.426Z,55.90
2018-09-01T13:29:59.038Z,56.50
2018-09-01T13:32:26.589Z,55.90
2018-09-01T13:34:54.401Z,54.50
2018-09-01T13:37:21.962Z,54.80
2018-09-01T13:39:49.567Z,54.40
2018-09-01T13:42:17.147Z,54.10
2018-09-01T13:44:44.738Z,53.90
2018-09-01T13:47:12.269Z,54.40
2018-09-01T13:49:39.814Z,53.30
2018-09-01T13:52:07.355Z,52.80
2018-09-01T13:54:34.888Z,53.00
2018-09-01T13:57:02.434Z,52.20
2018-09-01T13:59:29.977Z,52.70
2018-09-01T14:01:57.545Z,51.80
2018-09-01T14:04:25.148Z,52.30
2018-09-01T14:06:52.738Z,50.70
2018-09-01T14:09:20.281Z,51.60
2018-09-01T14:11:47.897Z,52.80
2018-09-01T14:14:15.571Z,53.00
2018-09-01T14:16:43.089Z,52.50
2018-09-01T14:19:10.614Z,52.50
2018-09-01T14:21:38.156Z,52.50
2018-09-01T14:24:05.743Z,52.60
2018-09-01T14:26:33.270Z,52.40
2018-09-01T14:29:00.851Z,51.60
2018-09-01T14:31:28.430Z,52.00
2018-09-01T14:33:55.950Z,52.90
2018-09-01T14:36:23.611Z,51.70
2018-09-01T14:38:51.249Z,51.90
2018-09-01T14:41:18.848Z,52.50
2018-09-01T14:43:46.530Z,52.70
2018-09-01T14:46:14.665Z,53.30
2018-09-01T14:48:42.217Z,53.70
2018-09-01T14:51:09.854Z,53.60
2018-09-01T14:53:37.413Z,54.20
2018-09-01T14:56:04.992Z,54.90
2018-09-01T14:58:32.606Z,55.30
2018-09-01T15:01:00.195Z,55.20
2018-09-01T15:03:27.745Z,55.40
2018-09-01T15:05:55.501Z,55.30
2018-09-01T15:08:23.074Z,55.20
2018-09-01T15:10:50.623Z,55.50
2018-09-01T15:13:18.203Z,55.80
2018-09-01T15:15:45.759Z,56.50
2018-09-01T15:18:13.329Z,57.70
2018-09-01T15:20:40.961Z,57.00
2018-09-01T15:23:08.529Z,56.90
2018-09-01T15:25:36.052Z,56.30
2018-09-01T15:28:03.627Z,56.90
2018-09-01T15:30:31.170Z,57.90
2018-09-01T15:32:58.769Z,59.00
2018-09-01T15:35:26.395Z,59.70
2018-09-01T15:37:53.909Z,59.80
2018-09-01T15:40:21.473Z,60.10
2018-09-01T15:42:49.003Z,60.90
2018-09-01T15:45:16.622Z,60.40
2018-09-01T15:47:44.228Z,60.60
2018-09-01T15:50:11.752Z,61.60
2018-09-01T15:52:39.337Z,61.40
2018-09-01T15:55:07.170Z,61.50
2018-09-01T15:57:34.716Z,61.70
2018-09-01T16:00:02.349Z,61.80
2018-09-01T16:02:29.844Z,61.70
2018-09-01T16:04:57.469Z,61.80
2018-09-01T16:07:25.029Z,62.10
2018-09-01T16:09:52.541Z,62.40
2018-09-01T16:12:20.087Z,62.40
2018-09-01T16:14:47.635Z,62.00
2018-09-01T16:17:15.229Z,62.40
2018-09-01T16:19:42.804Z,62.80
2018-09-01T16:22:10.384Z,62.10
2018-09-01T16:24:38.017Z,61.80
2018-09-01T16:27:05.492Z,62.10
2018-09-01T16:29:33.062Z,62.50
2018-09-01T16:32:00.611Z,62.40
2018-09-01T16:34:28.253Z,62.50
2018-09-01T16:36:55.889Z,63.20
2018-09-01T16:39:23.482Z,63.10
2018-09-01T16:41:51.058Z,62.50
2018-09-01T16:44:18.650Z,62.40
2018-09-01T16:46:46.211Z,62.20
2018-09-01T16:49:13.777Z,62.70
2018-09-01T16:51:41.313Z,63.00
2018-09-01T16:54:08.847Z,63.50
2018-09-01T16:56:36.372Z,63.90
2018-09-01T16:59:04.064Z,63.20
2018-09-01T17:01:31.656Z,63.80
2018-09-01T17:03:59.261Z,64.00
2018-09-01T17:06:26.871Z,64.30
2018-09-01T17:08:54.455Z,64.30
2018-09-01T17:11:22.009Z,63.80
2018-09-01T17:13:49.621Z,64.30
2018-09-01T17:16:17.184Z,63.70
2018-09-01T17:18:44.774Z,64.10
2018-09-01T17:21:12.368Z,64.00
2018-09-01T17:23:39.975Z,63.90
2018-09-01T17:26:07.523Z,64.30
2018-09-01T17:28:35.058Z,64.70
2018-09-01T17:31:02.722Z,64.90
2018-09-01T17:33:30.348Z,64.60
2018-09-01T17:35:57.880Z,64.90
2018-09-01T17:38:25.450Z,65.20
2018-09-01T17:40:53.011Z,65.60
2018-09-01T17:43:20.601Z,66.00
2018-09-01T17:45:48.485Z,65.60
2018-09-01T17:48:16.115Z,65.80
2018-09-01T17:50:43.999Z,65.90
2018-09-01T17:53:11.542Z,66.10
2018-09-01T17:55:39.089Z,66.80
2018-09-01T17:58:07.505Z,66.70
2018-09-01T18:00:35.126Z,66.30
2018-09-01T18:03:02.711Z,66.30
2018-09-01T18:05:30.303Z,66.20
2018-09-01T18:07:57.850Z,66.60
2018-09-01T18:10:25.535Z,66.20
2018-09-01T18:12:53.156Z,66.90
2018-09-01T18:15:20.759Z,66.90
2018-09-01T18:17:48.513Z,67.00
2018-09-01T18:20:16.106Z,66.90
2018-09-01T18:22:44.326Z,67.20
2018-09-01T18:25:11.884Z,67.00
2018-09-01T18:27:39.532Z,67.40
2018-09-01T18:30:07.866Z,67.60
2018-09-01T18:32:35.519Z,67.60
2018-09-01T18:35:03.201Z,67.80
2018-09-01T18:37:30.828Z,68.30
2018-09-01T18:39:58.485Z,68.40
2018-09-01T18:42:26.167Z,68.30
2018-09-01T18:44:53.776Z,68.20
2018-09-01T18:47:21.373Z,68.50
2018-09-01T18:49:48.954Z,68.50
2018-09-01T18:52:16.539Z,68.60
2018-09-01T18:54:44.061Z,68.70
2018-09-01T18:57:11.669Z,68.20
2018-09-01T18:59:39.327Z,68.50
2018-09-01T19:02:07.275Z,68.40
2018-09-01T19:04:34.905Z,68.10
2018-09-01T19:07:02.754Z,68.40
2018-09-01T19:09:30.398Z,68.70
2018-09-01T19:11:57.987Z,68.50
2018-09-01T19:14:25.694Z,68.90
2018-09-01T19:16:53.309Z,69.00
2018-09-01T19:19:20.916Z,69.10
2018-09-01T19:21:48.505Z,69.00
2018-09-01T19:24:16.117Z,69.40
2018-09-01T19:26:43.828Z,69.50
2018-09-01T19:29:11.617Z,69.20
2018-09-01T19:31:39.732Z,69.30
2018-09-01T19:34:07.562Z,69.10
2018-09-01T19:36:35.256Z,68.40
2018-09-01T19:39:04.277Z,68.70
2018-09-01T19:41:31.901Z,68.50
2018-09-01T19:43:59.516Z,68.20
2018-09-01T19:46:27.128Z,68.60
2018-09-01T19:48:54.858Z,68.80
2018-09-01T19:51:22.516Z,68.60
2018-09-01T19:53:50.125Z,68.60
2018-09-01T19:56:17.775Z,68.80
2018-09-01T19:58:46.264Z,69.60
2018-09-01T20:01:13.914Z,69.50
2018-09-01T20:03:41.576Z,69.70
2018-09-01T20:06:09.252Z,70.20
2018-09-01T20:08:36.898Z,70.20
2018-09-01T20:11:05.659Z,70.30
2018-09-01T20:13:33.470Z,69.60
2018-09-01T20:16:01.217Z,69.40
2018-09-01T20:18:29.432Z,69.20
2018-09-01T20:20:57.194Z,69.00
2018-09-01T20:23:24.912Z,69.10
2018-09-01T20:25:52.615Z,69.20
2018-09-01T20:28:20.204Z,69.10
2018-09-01T20:30:47.882Z,69.40
2018-09-01T20:33:15.474Z,69.70
2018-09-01T20:35:48.765Z,69.70
2018-09-01T20:38:16.444Z,69.60
2018-09-01T20:40:44.243Z,69.90
2018-09-01T20:43:11.819Z,70.20
2018-09-01T20:45:40.098Z,70.20
2018-09-01T20:48:07.744Z,70.50
2018-09-01T20:50:35.363Z,70.60
2018-09-01T20:53:03.054Z,70.40
2018-09-01T20:55:30.683Z,70.30
2018-09-01T20:57:58.320Z,70.60
2018-09-01T21:00:25.933Z,70.70
2018-09-01T21:02:53.473Z,70.90
2018-09-01T21:05:21.022Z,70.80
2018-09-01T21:07:48.627Z,70.80
2018-09-01T21:10:16.209Z,70.90
2018-09-01T21:12:43.810Z,71.20
2018-09-01T21:15:11.382Z,71.40
2018-09-01T21:17:38.963Z,70.70
2018-09-01T21:20:07.087Z,70.80
2018-09-01T21:22:34.634Z,71.50
2018-09-01T21:25:02.253Z,72.70
2018-09-01T21:27:29.876Z,71.80
2018-09-01T21:29:57.415Z,71.60
2018-09-01T21:32:24.947Z,71.90
2018-09-01T21:34:52.711Z,72.10
2018-09-01T21:37:20.331Z,73.00
2018-09-01T21:39:47.906Z,73.70
2018-09-01T21:42:15.474Z,74.00
2018-09-01T21:44:42.995Z,74.20
2018-09-01T21:47:10.606Z,73.90
2018-09-01T21:49:38.294Z,74.50
2018-09-01T21:52:06.019Z,74.60
2018-09-01T21:54:33.566Z,74.30
2018-09-01T21:57:01.151Z,74.00
2018-09-01T21:59:28.733Z,73.40
2018-09-01T22:02:01.878Z,73.70
2018-09-01T22:04:34.911Z,73.60
2018-09-01T22:07:02.799Z,73.50
2018-09-01T22:09:30.293Z,73.50
2018-09-01T22:11:57.805Z,74.30
2018-09-01T22:14:25.386Z,74.70
2018-09-01T22:16:52.946Z,74.40
2018-09-01T22:19:20.692Z,74.30
2018-09-01T22:21:48.426Z,73.90
2018-09-01T22:24:15.954Z,74.10
2018-09-01T22:26:43.450Z,74.50
2018-09-01T22:29:11.149Z,74.60
2018-09-01T22:31:38.816Z,74.70
2018-09-01T22:34:06.403Z,74.60
2018-09-01T22:36:33.986Z,74.50
2018-09-01T22:39:01.546Z,74.60
2018-09-01T22:41:29.096Z,74.60
2018-09-01T22:43:56.770Z,74.70
2018-09-01T22:46:24.381Z,74.40
2018-09-01T22:48:51.920Z,74.30
2018-09-01T22:51:19.429Z,74.70
2018-09-01T22:53:46.983Z,74.70
2018-09-01T22:56:14.484Z,74.80
2018-09-01T22:58:42.018Z,74.90
2018-09-01T23:01:09.572Z,74.90
2018-09-01T23:03:37.106Z,74.60
2018-09-01T23:06:04.640Z,74.20
2018-09-01T23:08:32.236Z,73.90
2018-09-01T23:10:59.802Z,74.40
2018-09-01T23:13:27.428Z,74.80
2018-09-01T23:15:55.034Z,74.20
2018-09-01T23:18:22.603Z,74.20
2018-09-01T23:20:50.165Z,74.40
2018-09-01T23:23:17.730Z,74.80
2018-09-01T23:25:45.268Z,74.80
2018-09-01T23:28:12.893Z,74.80
2018-09-01T23:30:40.536Z,75.10
2018-09-01T23:33:08.076Z,75.40
2018-09-01T23:35:35.602Z,75.50
2018-09-01T23:38:03.222Z,75.50
2018-09-01T23:40:30.761Z,75.60
2018-09-01T23:42:58.311Z,75.70
2018-09-01T23:45:25.848Z,75.40
2018-09-01T23:47:53.435Z,75.30
2018-09-01T23:50:20.940Z,75.40
2018-09-01T23:52:48.462Z,75.40
2018-09-01T23:55:16.177Z,75.40
2018-09-01T23:57:43.706Z,75.70
